Legend Of The Seas — C6SL5 — position and weather

sailwx.info

Track history (hours):
 
Tides and Currents Weather Stations Pressure Air Temp Water Temp Dewpoint Dewpoint Depression Visibility Wind Speed Wind Dir Waves Ship Positions

Legend Of The Seas

Operator: Royal Caribbean Cruises Ltd

Last reported at 2017-Jan-18 17:33 UTC. Time now 2017-Jan-18 18:04 UTC.
Position S 36°50' E 174°46'.

Type: Passenger vessel. MMSI: 311378000.

Date/timePositionNaut miles runAvg speedWind from/ knotsBaromVisibWave heightAir tempDewpointWater temp
2017-Jan-18 17:33S 36°50' E 174°46'5 4.6
2017-Jan-18 16:33S 36°46' E 174°49'1110.8
2017-Jan-18 15:33S 36°38' E 174°56'1010.0
2017-Jan-18 14:33S 36°28' E 175°00'1010.1
2017-Jan-18 13:33S 36°18' E 174°58'3812.6
2017-Jan-18 10:33S 35°41' E 174°53'1313.0
2017-Jan-18 09:32S 35°27' E 174°52'1312.8
2017-Jan-18 08:33S 35°15' E 174°51'20114.8
2017-Jan-17 19:00S 33°30' E 171°24'31518.5 190 / 131013.110.8 19.017.517.0
2017-Jan-17 02:00S 31°24' E 165°42'9716.2 080 / 101015.110.8 23.021.621.0
2017-Jan-16 20:00S 30°42' E 164°00'57318.6 120 / 101014.110.8 23.018.520.0
2017-Jan-15 13:10S 26°55' E 153°59'1619.1
2017-Jan-15 12:20S 26°48' E 153°43'1518.7
2017-Jan-15 11:34S 26°44' E 153°27'1515.4
2017-Jan-15 10:33S 26°44' E 153°10'1514.7
2017-Jan-15 09:33S 26°58' E 153°14'1615.7
2017-Jan-15 08:33S 27°13' E 153°20'1414.1
2017-Jan-15 07:33S 27°23' E 153°09'6 5.8
2017-Jan-15 06:33S 27°27' E 153°04'0 0.2
2017-Jan-15 05:28S 27°26' E 153°04'0 0.0
2017-Jan-15 04:31S 27°26' E 153°04'0 0.0
2017-Jan-15 03:31S 27°26' E 153°04'0 0.0
2017-Jan-15 02:31S 27°26' E 153°04'0 0.0
2017-Jan-15 01:31S 27°26' E 153°04'0 0.0
2017-Jan-15 00:31S 27°26' E 153°04'0 0.0
2017-Jan-14 23:28S 27°26' E 153°04'0 0.0
2017-Jan-14 22:31S 27°26' E 153°04'0 0.0
2017-Jan-14 21:31S 27°26' E 153°04'0 0.0
2017-Jan-14 20:31S 27°26' E 153°04'0 0.3
2017-Jan-14 19:33S 27°27' E 153°04'6 6.1
2017-Jan-14 18:33S 27°23' E 153°10'1313.1
2017-Jan-14 17:33S 27°14' E 153°20'1211.9
2017-Jan-14 16:33S 27°02' E 153°15'1414.0
2017-Jan-14 15:33S 26°50' E 153°09'1211.4
2017-Jan-14 14:29S 26°40' E 153°17'1112.0
2017-Jan-14 13:31S 26°36' E 153°29'1212.3
2017-Jan-14 12:33S 26°32' E 153°42'1211.8
2017-Jan-14 11:33S 26°28' E 153°54'1412.9
2017-Jan-14 10:30S 26°24' E 154°08'1312.5
2017-Jan-14 09:29S 26°19' E 154°21'1112.1
2017-Jan-14 08:33S 26°16' E 154°33'66513.8
2017-Jan-12 08:10S 22°28' E 165°60'914.4
2017-Jan-12 07:33S 22°25' E 166°09'1313.4
2017-Jan-12 06:34S 22°17' E 166°20'6 5.5
2017-Jan-12 05:31S 22°16' E 166°26'0 0.0
2017-Jan-12 04:31S 22°16' E 166°26'0 0.0
2017-Jan-12 03:31S 22°16' E 166°26'0 0.0
2017-Jan-12 02:31S 22°16' E 166°26'0 0.0
2017-Jan-12 01:31S 22°16' E 166°26'0 0.0
2017-Jan-12 00:31S 22°16' E 166°26'0 0.0
2017-Jan-11 23:31S 22°16' E 166°26'0 0.0
2017-Jan-11 22:31S 22°16' E 166°26'0 0.0
2017-Jan-11 21:31S 22°16' E 166°26'0 0.0
2017-Jan-11 20:32S 22°16' E 166°26'3 3.0
2017-Jan-11 19:34S 22°19' E 166°25'1313.3
2017-Jan-11 18:33S 22°23' E 166°39'  
Track history (hours):
 
Tides and Currents Weather Stations Pressure Air Temp Water Temp Dewpoint Dewpoint Depression Visibility Wind Speed Wind Dir Waves Ship Positions

Legend Of The Seas

Operator: Royal Caribbean Cruises Ltd

Last reported at 2017-Jan-18 17:33 UTC. Time now 2017-Jan-18 18:04 UTC.
Position S 36°50' E 174°46'.

Type: Passenger vessel. MMSI: 311378000.

Date/timePositionNaut miles runAvg speedWind from/ knotsBaromVisibWave heightAir tempDewpointWater temp
2017-Jan-18 17:33S 36°50' E 174°46'5 4.6
2017-Jan-18 16:33S 36°46' E 174°49'1110.8
2017-Jan-18 15:33S 36°38' E 174°56'1010.0
2017-Jan-18 14:33S 36°28' E 175°00'1010.1
2017-Jan-18 13:33S 36°18' E 174°58'3812.6
2017-Jan-18 10:33S 35°41' E 174°53'1313.0
2017-Jan-18 09:32S 35°27' E 174°52'1312.8
2017-Jan-18 08:33S 35°15' E 174°51'20114.8
2017-Jan-17 19:00S 33°30' E 171°24'31518.5 190 / 131013.110.8 19.017.517.0
2017-Jan-17 02:00S 31°24' E 165°42'9716.2 080 / 101015.110.8 23.021.621.0
2017-Jan-16 20:00S 30°42' E 164°00'57318.6 120 / 101014.110.8 23.018.520.0
2017-Jan-15 13:10S 26°55' E 153°59'1619.1
2017-Jan-15 12:20S 26°48' E 153°43'1518.7
2017-Jan-15 11:34S 26°44' E 153°27'1515.4
2017-Jan-15 10:33S 26°44' E 153°10'1514.7
2017-Jan-15 09:33S 26°58' E 153°14'1615.7
2017-Jan-15 08:33S 27°13' E 153°20'1414.1
2017-Jan-15 07:33S 27°23' E 153°09'6 5.8
2017-Jan-15 06:33S 27°27' E 153°04'0 0.2
2017-Jan-15 05:28S 27°26' E 153°04'0 0.0
2017-Jan-15 04:31S 27°26' E 153°04'0 0.0
2017-Jan-15 03:31S 27°26' E 153°04'0 0.0
2017-Jan-15 02:31S 27°26' E 153°04'0 0.0
2017-Jan-15 01:31S 27°26' E 153°04'0 0.0
2017-Jan-15 00:31S 27°26' E 153°04'0 0.0
2017-Jan-14 23:28S 27°26' E 153°04'0 0.0
2017-Jan-14 22:31S 27°26' E 153°04'0 0.0
2017-Jan-14 21:31S 27°26' E 153°04'0 0.0
2017-Jan-14 20:31S 27°26' E 153°04'0 0.3
2017-Jan-14 19:33S 27°27' E 153°04'6 6.1
2017-Jan-14 18:33S 27°23' E 153°10'1313.1
2017-Jan-14 17:33S 27°14' E 153°20'1211.9
2017-Jan-14 16:33S 27°02' E 153°15'1414.0
2017-Jan-14 15:33S 26°50' E 153°09'1211.4
2017-Jan-14 14:29S 26°40' E 153°17'1112.0
2017-Jan-14 13:31S 26°36' E 153°29'1212.3
2017-Jan-14 12:33S 26°32' E 153°42'1211.8
2017-Jan-14 11:33S 26°28' E 153°54'1412.9
2017-Jan-14 10:30S 26°24' E 154°08'1312.5
2017-Jan-14 09:29S 26°19' E 154°21'1112.1
2017-Jan-14 08:33S 26°16' E 154°33'66513.8
2017-Jan-12 08:10S 22°28' E 165°60'914.4
2017-Jan-12 07:33S 22°25' E 166°09'1313.4
2017-Jan-12 06:34S 22°17' E 166°20'6 5.5
2017-Jan-12 05:31S 22°16' E 166°26'0 0.0
2017-Jan-12 04:31S 22°16' E 166°26'0 0.0
2017-Jan-12 03:31S 22°16' E 166°26'0 0.0
2017-Jan-12 02:31S 22°16' E 166°26'0 0.0
2017-Jan-12 01:31S 22°16' E 166°26'0 0.0
2017-Jan-12 00:31S 22°16' E 166°26'0 0.0
2017-Jan-11 23:31S 22°16' E 166°26'0 0.0
2017-Jan-11 22:31S 22°16' E 166°26'0 0.0
2017-Jan-11 21:31S 22°16' E 166°26'0 0.0
2017-Jan-11 20:32S 22°16' E 166°26'3 3.0
2017-Jan-11 19:34S 22°19' E 166°25'1313.3
2017-Jan-11 18:33S 22°23' E 166°39'  

Dump ship's entire track history